Portada
METAR-TAF:

METAR-TAF

Aeropuertos :

Wendover Airport

Wendover, Utah, Estados Unidos

latitud: 40-44N, longitud: 114-02W, altitud: 1291 m

Observación

El informe se hizo hace 47 minutos, a las 19:56 UTC
Viento 4 kt con dirección variable
Temperatura 13°C
Humedad 24%
Presión 1028 hPa
Visibilidad: 16.1 km
Cielo despejado

METAR: KENV 161956Z AUTO VRB04KT 10SM CLR 13/M07 A3035 RMK AO2 SLP281 T01281072

Hora: 14:43 (20:43 UTC)

Pronóstico

El informe se hizo hace 3 horas y 19 minutos, a las 17:24 UTC
Pronóstico válido del 16 a las 18 UTC al 17 a las 18 UTC
Viento 7 kt del este
Visibilidad: 10 km
Cielo despejado
A partir de las 17 a las 0200 UTC
Viento 6 kt del norte
Visibilidad: 10 km
Cielo despejado

TAF: KENV 161724Z 1618/1718 09007KT P6SM SKC FM170200 35006KT P6SM SKC

Observaciones y pronósticos meteorológicos de más de 4000 aeropuertos (mensajes METAR y TAF).

Los puntos amarillos y rojos representan las estaciones disponibles.

Ponga el ratón en el punto deseado para ver el nombre de la estación.

Haga clic para ver las observaciones y los pronósticos meteorológicos.

Para cambiar el mapa : haga clic en los botones verdes con una cruz de color negro para hacer un zoom, en el botón verde con un guión para alejar o en las flechas verdes para mapas adyacentes.


METAR-TAF: